Billings, MT (59101)

2:33 PM MDT on March 30, 2017 (GMT -0600)
Yellowstone RV Campground | | Change Station

Elev 3120 ft 45.76 °N, 108.48 °W | Updated 5 seconds ago

Overcast
Overcast
48.4 °F
Feels Like 47 °F
N
4.0
Wind Variable Wind from NE
Gusts 4.9 mph

Today
High -- | Low -- °F
--% Chance of Precip.
Yesterday
High -- | Low -- °F
Precip. -- in
Pressure 29.74 in
Visibility 10.0 miles
Clouds Scattered Clouds 1700 ft
Mostly Cloudy 2300 ft
Overcast 3400 ft
Windchill 47 °F
Dew Point 36 °F
Humidity 62%
Rainfall 0.30 in
Snow Depth Not available.
6:57 AM 7:40 PM
Waxing Crescent, 10% visible
SPECI KBIL 302022Z 04006KT 10SM -RA SCT017 BKN023 OVC034 08/05 A2974 RMK AO2 RAB1955 P0000 T00830050
Pressure 29.74 in
Visibility 10.0 miles
Clouds Scattered Clouds 1700 ft
Mostly Cloudy 2300 ft
Overcast 3400 ft
Windchill 47 °F
Dew Point 36 °F
Humidity 62%
Rainfall 0.30 in
Snow Depth Not available.
6:57 AM 7:40 PM
Waxing Crescent, 10% visible
SPECI KBIL 302022Z 04006KT 10SM -RA SCT017 BKN023 OVC034 08/05 A2974 RMK AO2 RAB1955 P0000 T00830050

Get Severe Weather Alerts

Thanks for signing up!

Be on the lookout for a verification email in your inbox.

You'll start receiving the daily forecast at 8 AM.

×

10-Day Weather Forecast

Almanac

Astronomy

Mar. 30, 2017 Rise Set
Actual Time
Civil Twilight
Nautical Twilight
Astronomical Twilight
Moon
Length of Visible Light
Length of Day
Tomorrow will be .
, % of the Moon is Illuminated

Today's Extremes

State Highs State Lows

Community

WunderPhotos

Upload Photos

1,962,540 photos uploaded!

WunderBlog® & News

Nearby

Air Quality

  Air Quality AQ Index Pollutant
Not available.

Snow Depth

Station Depth Elevation

Earthquake Activity

City Distance Mag. Time & Date
Minimum magnitude displayed is 2.5.

Earthquake Activity

City Distance Mag. Time & Date
Minimum magnitude displayed is 2.5.

Coastal Water Temperatures

Place Temperature

Stations

Nearby Weather Stations

Station Location Temp. Windchill Dew Point Humidity Wind Precip. Elev Updated Type
                   

Watches & Warnings

There are currently no watches in effect.